NCAR-RAP Real-Time Weather Data

Output produced by METARs form (25 October 2014  21:06 UTC)
found at http://weather.rap.ucar.edu/surface/
 
Conditions at: KSDF observed 25 October 2014  20:56 UTC
Temperature: 25.0°C (77°F)
Dewpoint: 14.4°C (58°F) [RH = 52%]
Pressure (altimeter): 29.96 inches Hg (1014.6 mb)
[Sea-level pressure: 1014.2 mb]
Winds: from the SW (230 degrees) at 12 MPH (10 knots; 5.2 m/s)
Visibility: 10 or more miles (16+ km)
Ceiling: at least 12,000 feet AGL
Clouds: few clouds at 20000 feet AGL
Present Weather: no significant weather observed at this time
KSDF 252056Z 23010KT 10SM FEW200 25/14 A2996 RMK AO2 SLP142 T02500144 55005